Bookmark and Share
Track history (hours):
 

4 De Coeur

Last reported at 2013-Aug-22 17:25 UTC. Time now 2014-Apr-24 04:15 UTC.
Position N 47°32' W 002°54'.
Warning: this ship's position is months out of date.

Length 11 m.

Type: Pleasure craft. MMSI: 227523340.

NotesDate/timePositionNaut miles runAvg speedWind from/ knotsBaromVisibWave heightAir tempDewpointWater temp
2013-Aug-22 17:25N 47°32' W 002°54'4 4.4
2013-Aug-22 16:33N 47°29' W 002°55'1 0.1
2013-Aug-22 09:32N 47°28' W 002°55'4 4.1
2013-Aug-22 08:30N 47°32' W 002°54'0 0.4
2013-Aug-22 07:19N 47°33' W 002°54'0 0.0
2013-Aug-22 06:29N 47°33' W 002°54'  
2013-Aug-15 16:24N 47°33' W 002°54'3 3.0
2013-Aug-15 15:33N 47°35' W 002°53'3 2.6
2013-Aug-15 14:32N 47°37' W 002°50'0 0.0
2013-Aug-15 13:32N 47°37' W 002°50'0 0.0
2013-Aug-15 12:32N 47°37' W 002°50'0 0.0
2013-Aug-15 11:23N 47°37' W 002°50'0 0.0
2013-Aug-15 10:26N 47°37' W 002°50'0 0.0
2013-Aug-15 09:26N 47°37' W 002°50'0 0.0
2013-Aug-15 08:33N 47°37' W 002°50'6 5.6
2013-Aug-15 07:33N 47°33' W 002°55'1 0.0
2013-Aug-13 15:33N 47°33' W 002°54'4 3.9
2013-Aug-13 14:33N 47°32' W 002°60'2 1.4
2013-Aug-13 13:25N 47°34' W 003°00'5 5.3
2013-Aug-13 12:34N 47°30' W 002°56'  

Dump ship's entire track history

sailing weather and tide predictions

4 De Coeur — FW6599 — position and weather